Coronel Du Graty, Argentina
Current Conditions -  °F | °C
As of 2:00 PM on Wednesday 22 Oct 2014 (Local Time) from SARE Reporting Station
Clear Clear  
Wind Chill: 34°   Ceiling: Unl
Heat Index: 34°   Visibility: 6mi
Dew Point: 13°   Wind: 7mph
Humidity: 28%   Direction: 90°E
Pressure: 29.94"   Gusts: NA
Location:  27.74°S, 61.04°W
Report Text: SARE 221700Z 09006KT CAVOK 34/13 Q1014
Loading
Personal Weather Stations






























Interactive Weather Map
Tropical Storm Tracking
New forecast layout! Learn more

10-Day Weather Forecast

Advertisements
Track Severe Weather on mobile